• Join FlightAware (Why Join?)
  • Login
  • US Flag 
07:37AM EDT


 

Airport Tracker/Info


-or-


 

Live Flight TrackerFlight Track Log ✈ UAL4274 ✈ 24-Apr-2013 ✈ KRIC - KCLE

Flight Track Log - Related Links

Times and Time Zones

All times are in EDT time to prevent confusion due to time zone crossing. See the UAL4274 flight status page for this flight to view local times or setup timezone preferences in your user account.

Time Position Orientation Groundspeed Altitude Reporting Facility
EDT Latitude Longitude Course Direction KTS MPH feet Rate Location/Type
06:38AM 37.4667 -77.3500 267° West 191 220 3,200  Level Potomac TRACON
06:39AM 37.4625 -77.4364 267° West 235 270 5,900 2,220 Climbing Washington Center
06:40AM 37.4506 -77.5250 260° West 240 276 8,300 2,460 Climbing Washington Center
06:41AM 37.4367 -77.6164 259° West 255 293 10,900 1,800 Climbing Washington Center
06:42AM 37.4558 -77.7108 284° West 261 300 11,900 1,260 Climbing Washington Center
06:43AM 37.5169 -77.7886 315° West 283 326 13,500 1,560 Climbing Washington Center
06:44AM 37.5931 -77.8483 328° Northwest 289 333 15,100 1,500 Climbing Washington Center
06:45AM 37.6753 -77.9086 330° Northwest 318 366 16,500 1,260 Climbing Washington Center
06:46AM 37.7578 -77.9664 331° Northwest 332 382 17,700 1,200 Climbing Washington Center
06:47AM 37.8419 -78.0267 331° Northwest 343 395 19,000 1,260 Climbing Washington Center
06:48AM 37.9283 -78.0928 329° Northwest 349 402 20,300 1,200 Climbing Washington Center
06:49AM 38.0228 -78.1567 332° Northwest 367 422 21,500 1,200 Climbing Washington Center
06:50AM 38.1333 -78.1631 357° North 375 432 22,800 1,260 Climbing Washington Center
06:51AM 38.2414 -78.1694 357° North 382 440 24,100 1,140 Climbing Washington Center
06:52AM 38.3622 -78.1842 355° North 388 447 25,100 900 Climbing Washington Center
06:53AM 38.4622 -78.1850 360° North 388 447 26,000 540 Climbing Washington Center
06:54AM 38.5789 -78.1889 359° North 393 452 26,200 480 Climbing Washington Center
06:55AM 38.6975 -78.1983 356° North 412 474 27,000 360 Climbing Washington Center
06:56AM 38.8161 -78.2053 357° North 418 481 27,000  Level Washington Center
06:57AM 38.9411 -78.2150 357° North 423 487 27,000  Level Washington Center
06:58AM 39.0764 -78.2306 355° North 435 501 27,000  Level Washington Center
06:59AM 39.2011 -78.2433 355° North 441 507 27,000  Level Washington Center
07:00AM 39.3278 -78.2558 356° North 446 513 27,000  Level Washington Center
07:03AM 39.5853 -78.2828 355° North 462 532 27,000  Level Cleveland Center
07:04AM 39.7106 -78.2919 357° North 462 532 27,000  Level Cleveland Center
07:05AM 39.8464 -78.3144 353° North 462 532 27,000  Level Cleveland Center
07:06AM 39.9422 -78.4086 323° Northwest 430 495 27,000  Level Cleveland Center
07:07AM 40.0194 -78.5308 310° West 418 481 27,000  Level Cleveland Center
07:08AM 40.0944 -78.6508 309° West 418 481 27,000  Level Cleveland Center
07:09AM 40.1694 -78.7708 309° West 423 487 27,000 -300 Level Cleveland Center
07:10AM 40.2444 -78.8914 309° West 433 498 26,500 -540 Descending Cleveland Center
07:11AM 40.3211 -79.0144 309° West 433 498 26,000 -300 Descending Cleveland Center
07:12AM 40.3978 -79.1381 309° West 438 504 26,000  Level Cleveland Center
07:13AM 40.4744 -79.2594 310° West 438 504 26,000  Level Cleveland Center
07:14AM 40.5464 -79.3728 310° West 443 510 26,000  Level Cleveland Center
07:15AM 40.6206 -79.4917 309° West 443 510 26,000  Level Cleveland Center
07:16AM 40.6947 -79.6164 308° West 438 504 26,000  Level Cleveland Center
07:17AM 40.7708 -79.7414 309° West 438 504 26,000  Level Cleveland Center
07:18AM 40.8444 -79.8639 308° West 438 504 26,000  Level Cleveland Center
07:19AM 40.9183 -79.9842 309° West 438 504 26,000 -300 Level Cleveland Center
07:20AM 40.9897 -80.0989 310° West 424 488 25,400 -780 Descending Cleveland Center
07:21AM 41.0567 -80.2114 308° West 410 472 24,500 -720 Descending Cleveland Center
07:22AM 41.1239 -80.3267 308° West 400 460 24,000 -300 Descending Cleveland Center
07:23AM 41.1992 -80.4533 308° West 394 453 24,000 -1,200 Level Cleveland Center
07:24AM 41.2533 -80.5719 301° West 383 441 21,700 -2,520 Descending Cleveland Center
07:25AM 41.3075 -80.6908 301° West 378 435 19,000 -2,460 Descending Cleveland Center
07:26AM 41.3572 -80.8017 301° West 362 417 16,800 -2,160 Descending Cleveland Center
07:27AM 41.4008 -80.9042 300° West 336 387 14,700 -2,340 Descending Cleveland Center
07:28AM 41.4444 -81.0014 301° West 314 361 12,200 -2,460 Descending Cleveland Center
07:28AM 41.4608 -81.0431 298° West 300 345 11,200 -1,920 Descending Cleveland Center
07:29AM 41.4731 -81.0986 286° West 301 346 10,300 -1,200 Descending Cleveland Center
07:29AM 41.4792 -81.1431 280° West 278 320 10,000 -300 Descending Cleveland Center
07:30AM 41.4872 -81.1903 283° West 285 328 10,000  Level Cleveland Center
07:30AM 41.4975 -81.2458 284° West 277 319 10,000 -240 Level Cleveland Center
07:31AM 41.5033 -81.2872 281° West 280 322 9,800 -1,320 Descending Cleveland Center
07:31AM 41.5114 -81.3458 280° West 234 269 8,600 -1,800 Descending Cleveland Center
07:32AM 41.5153 -81.3733 281° West 257 296 8,000 -1,560 Descending Cleveland Center
07:32AM 41.5253 -81.4400 281° West 228 262 6,900 -1,320 Descending Cleveland Center
07:33AM 41.5292 -81.4569 287° West 234 269 6,700 -1,020 Descending Cleveland Center
07:33AM 41.5353 -81.5014 280° West 225 259 6,100 -1,140 Descending Cleveland Center
07:34AM 41.5411 -81.5375 282° West 234 269 5,600 -1,020 Descending Cleveland Center
07:34AM 41.5469 -81.5847 279° West 224 258 5,100 -1,020 Descending Cleveland Center
07:35AM 41.5425 -81.6181 260° West 229 264 4,600 -1,140 Descending Cleveland Center
07:35AM 41.5381 -81.6567 261° West 216 249 4,100 -720 Descending Cleveland Center
07:36AM 41.5189 -81.6842 227° Southwest 206 237 3,900 -600 Descending Cleveland Center
07:36AM 41.5019 -81.7114 230° Southwest 205 236 3,500 -900 Descending Cleveland Center
07:37AM 41.4872 -81.7333 228° Southwest 189 217 3,000 -840 Descending Cleveland Center
07:37AM 41.4744 -81.7525 228° Southwest 138 159 2,700 -720 Descending Cleveland Center
07:38AM 41.4575 -81.7856 236° Southwest 111 128 2,100 -600 Descending Cleveland Center
07:39AM 41.4364 -81.8128 224° Southwest 134 154 1,600 -540 Descending Cleveland Center
07:41AM 41.4000 -81.8500 252° West  Level FlightAware Approximate
07:48AM 41.4094 -81.8547 252° West  Level Estimated